sensor_id;sensor_type;location;lat;lon;timestamp;temperature;humidity
23618;DHT22;18207;32.078;34.818;2023-10-09T00:01:07;32.20;40.20
23618;DHT22;18207;32.078;34.818;2023-10-09T00:03:43;32.30;40.30
23618;DHT22;18207;32.078;34.818;2023-10-09T00:06:17;32.20;40.20
23618;DHT22;18207;32.078;34.818;2023-10-09T00:08:58;32.20;40.20
23618;DHT22;18207;32.078;34.818;2023-10-09T00:11:39;32.20;40.20
23618;DHT22;18207;32.078;34.818;2023-10-09T00:14:12;32.20;40.20
23618;DHT22;18207;32.078;34.818;2023-10-09T00:16:44;32.20;40.20
23618;DHT22;18207;32.078;34.818;2023-10-09T00:19:16;32.20;40.20
23618;DHT22;18207;32.078;34.818;2023-10-09T00:21:48;32.20;40.30
23618;DHT22;18207;32.078;34.818;2023-10-09T00:24:22;32.20;40.30
23618;DHT22;18207;32.078;34.818;2023-10-09T00:26:53;32.20;40.30
23618;DHT22;18207;32.078;34.818;2023-10-09T00:29:30;32.20;40.30
23618;DHT22;18207;32.078;34.818;2023-10-09T00:32:05;32.20;40.30
23618;DHT22;18207;32.078;34.818;2023-10-09T00:34:41;32.20;40.30
23618;DHT22;18207;32.078;34.818;2023-10-09T00:37:11;32.20;40.30
23618;DHT22;18207;32.078;34.818;2023-10-09T00:39:44;32.20;40.30
23618;DHT22;18207;32.078;34.818;2023-10-09T00:42:16;32.20;40.30
23618;DHT22;18207;32.078;34.818;2023-10-09T00:44:55;32.20;40.30
23618;DHT22;18207;32.078;34.818;2023-10-09T00:47:32;32.20;40.30
23618;DHT22;18207;32.078;34.818;2023-10-09T00:50:06;32.30;40.30
23618;DHT22;18207;32.078;34.818;2023-10-09T00:52:39;32.20;40.30
23618;DHT22;18207;32.078;34.818;2023-10-09T00:55:12;32.20;40.20
23618;DHT22;18207;32.078;34.818;2023-10-09T00:57:45;32.20;40.20
23618;DHT22;18207;32.078;34.818;2023-10-09T01:00:24;32.10;40.10
23618;DHT22;18207;32.078;34.818;2023-10-09T01:03:16;32.10;40.10
23618;DHT22;18207;32.078;34.818;2023-10-09T01:05:51;32.10;40.20
23618;DHT22;18207;32.078;34.818;2023-10-09T01:08:26;32.10;40.10
23618;DHT22;18207;32.078;34.818;2023-10-09T01:11:11;32.10;40.20
23618;DHT22;18207;32.078;34.818;2023-10-09T01:13:47;32.00;40.10
23618;DHT22;18207;32.078;34.818;2023-10-09T01:16:39;32.00;40.20
23618;DHT22;18207;32.078;34.818;2023-10-09T01:19:13;32.00;40.30
23618;DHT22;18207;32.078;34.818;2023-10-09T01:21:48;32.00;40.30
23618;DHT22;18207;32.078;34.818;2023-10-09T01:24:19;31.90;40.30
23618;DHT22;18207;32.078;34.818;2023-10-09T01:26:50;31.90;40.40
23618;DHT22;18207;32.078;34.818;2023-10-09T01:29:23;31.90;40.40
23618;DHT22;18207;32.078;34.818;2023-10-09T01:31:55;31.90;40.40
23618;DHT22;18207;32.078;34.818;2023-10-09T01:34:29;31.90;40.50
23618;DHT22;18207;32.078;34.818;2023-10-09T01:37:10;31.90;40.50
23618;DHT22;18207;32.078;34.818;2023-10-09T01:39:49;31.90;40.60
23618;DHT22;18207;32.078;34.818;2023-10-09T01:42:20;31.90;40.60
23618;DHT22;18207;32.078;34.818;2023-10-09T01:44:55;31.90;40.60
23618;DHT22;18207;32.078;34.818;2023-10-09T01:47:26;31.90;40.60
23618;DHT22;18207;32.078;34.818;2023-10-09T01:49:59;31.90;40.60
23618;DHT22;18207;32.078;34.818;2023-10-09T01:52:32;31.90;40.60
23618;DHT22;18207;32.078;34.818;2023-10-09T01:55:06;31.90;40.70
23618;DHT22;18207;32.078;34.818;2023-10-09T01:57:37;31.90;40.60
23618;DHT22;18207;32.078;34.818;2023-10-09T02:00:07;31.90;40.60
23618;DHT22;18207;32.078;34.818;2023-10-09T02:02:44;31.90;40.60
23618;DHT22;18207;32.078;34.818;2023-10-09T02:05:14;32.00;40.70
23618;DHT22;18207;32.078;34.818;2023-10-09T02:07:52;32.00;40.70
23618;DHT22;18207;32.078;34.818;2023-10-09T02:10:24;32.00;40.70
23618;DHT22;18207;32.078;34.818;2023-10-09T02:13:01;32.00;40.70
23618;DHT22;18207;32.078;34.818;2023-10-09T02:15:36;32.00;40.60
23618;DHT22;18207;32.078;34.818;2023-10-09T02:18:20;32.00;40.60
23618;DHT22;18207;32.078;34.818;2023-10-09T02:21:07;32.00;40.50
23618;DHT22;18207;32.078;34.818;2023-10-09T02:23:43;32.00;40.50
23618;DHT22;18207;32.078;34.818;2023-10-09T02:26:19;32.00;40.50
23618;DHT22;18207;32.078;34.818;2023-10-09T02:28:54;32.00;40.60
23618;DHT22;18207;32.078;34.818;2023-10-09T02:31:29;32.00;40.60
23618;DHT22;18207;32.078;34.818;2023-10-09T02:34:08;32.00;40.60
23618;DHT22;18207;32.078;34.818;2023-10-09T02:36:40;32.00;40.70
23618;DHT22;18207;32.078;34.818;2023-10-09T02:39:17;32.10;40.70
23618;DHT22;18207;32.078;34.818;2023-10-09T02:41:53;32.10;40.70
23618;DHT22;18207;32.078;34.818;2023-10-09T02:44:28;32.10;40.60
23618;DHT22;18207;32.078;34.818;2023-10-09T02:47:02;32.10;40.60
23618;DHT22;18207;32.078;34.818;2023-10-09T02:49:39;32.10;40.60
23618;DHT22;18207;32.078;34.818;2023-10-09T02:52:10;32.10;41.20
23618;DHT22;18207;32.078;34.818;2023-10-09T02:54:44;32.10;40.60
23618;DHT22;18207;32.078;34.818;2023-10-09T02:57:16;32.10;40.70
23618;DHT22;18207;32.078;34.818;2023-10-09T02:59:51;32.10;40.70
23618;DHT22;18207;32.078;34.818;2023-10-09T03:02:21;32.10;40.80
23618;DHT22;18207;32.078;34.818;2023-10-09T03:04:52;32.10;40.80
23618;DHT22;18207;32.078;34.818;2023-10-09T03:07:23;32.10;40.80
23618;DHT22;18207;32.078;34.818;2023-10-09T03:09:53;32.10;40.80
23618;DHT22;18207;32.078;34.818;2023-10-09T03:12:24;32.10;40.80
23618;DHT22;18207;32.078;34.818;2023-10-09T03:14:56;32.10;40.80
23618;DHT22;18207;32.078;34.818;2023-10-09T03:17:26;32.20;40.80
23618;DHT22;18207;32.078;34.818;2023-10-09T03:19:56;32.20;40.70
23618;DHT22;18207;32.078;34.818;2023-10-09T03:22:27;32.20;40.60
23618;DHT22;18207;32.078;34.818;2023-10-09T03:24:58;32.10;40.50
23618;DHT22;18207;32.078;34.818;2023-10-09T03:27:29;32.10;40.50
23618;DHT22;18207;32.078;34.818;2023-10-09T03:29:59;32.10;40.50
23618;DHT22;18207;32.078;34.818;2023-10-09T03:32:32;32.00;40.50
23618;DHT22;18207;32.078;34.818;2023-10-09T03:35:02;32.00;40.50
23618;DHT22;18207;32.078;34.818;2023-10-09T03:37:37;32.00;40.40
23618;DHT22;18207;32.078;34.818;2023-10-09T03:40:08;31.90;40.30
23618;DHT22;18207;32.078;34.818;2023-10-09T03:42:47;32.00;40.30
23618;DHT22;18207;32.078;34.818;2023-10-09T03:45:16;31.90;40.20
23618;DHT22;18207;32.078;34.818;2023-10-09T03:47:54;31.90;40.10
23618;DHT22;18207;32.078;34.818;2023-10-09T03:50:38;31.90;40.00
23618;DHT22;18207;32.078;34.818;2023-10-09T03:53:10;31.90;40.00
23618;DHT22;18207;32.078;34.818;2023-10-09T03:55:40;31.90;39.80
23618;DHT22;18207;32.078;34.818;2023-10-09T03:58:12;31.90;39.70
23618;DHT22;18207;32.078;34.818;2023-10-09T04:00:42;31.90;39.60
23618;DHT22;18207;32.078;34.818;2023-10-09T04:03:14;31.90;39.50
23618;DHT22;18207;32.078;34.818;2023-10-09T04:05:44;32.00;39.40
23618;DHT22;18207;32.078;34.818;2023-10-09T04:08:14;31.90;39.30
23618;DHT22;18207;32.078;34.818;2023-10-09T04:10:56;32.00;39.20
23618;DHT22;18207;32.078;34.818;2023-10-09T04:13:33;31.90;39.10
23618;DHT22;18207;32.078;34.818;2023-10-09T04:16:03;32.00;39.10
23618;DHT22;18207;32.078;34.818;2023-10-09T04:18:47;31.90;39.00
23618;DHT22;18207;32.078;34.818;2023-10-09T04:21:17;32.00;39.60
23618;DHT22;18207;32.078;34.818;2023-10-09T04:24:02;32.00;39.00
23618;DHT22;18207;32.078;34.818;2023-10-09T04:26:52;32.00;39.00
23618;DHT22;18207;32.078;34.818;2023-10-09T04:29:25;32.00;38.90
23618;DHT22;18207;32.078;34.818;2023-10-09T04:32:06;32.00;38.90
23618;DHT22;18207;32.078;34.818;2023-10-09T04:34:45;32.00;38.90
23618;DHT22;18207;32.078;34.818;2023-10-09T04:37:24;32.00;38.80
23618;DHT22;18207;32.078;34.818;2023-10-09T04:40:05;32.00;38.90
23618;DHT22;18207;32.078;34.818;2023-10-09T04:42:52;32.10;39.00
23618;DHT22;18207;32.078;34.818;2023-10-09T04:45:27;32.10;38.90
23618;DHT22;18207;32.078;34.818;2023-10-09T04:48:14;32.10;38.80
23618;DHT22;18207;32.078;34.818;2023-10-09T04:51:00;32.10;38.80
23618;DHT22;18207;32.078;34.818;2023-10-09T04:53:46;32.10;38.70
23618;DHT22;18207;32.078;34.818;2023-10-09T04:56:28;32.10;38.70
23618;DHT22;18207;32.078;34.818;2023-10-09T04:59:00;32.10;38.70
23618;DHT22;18207;32.078;34.818;2023-10-09T05:01:37;32.10;38.70
23618;DHT22;18207;32.078;34.818;2023-10-09T05:04:11;32.10;38.70
23618;DHT22;18207;32.078;34.818;2023-10-09T05:07:07;32.10;38.80
23618;DHT22;18207;32.078;34.818;2023-10-09T05:09:52;32.10;38.90
23618;DHT22;18207;32.078;34.818;2023-10-09T05:12:23;32.10;39.10
23618;DHT22;18207;32.078;34.818;2023-10-09T05:14:56;32.10;39.10
23618;DHT22;18207;32.078;34.818;2023-10-09T05:17:37;32.10;39.20
23618;DHT22;18207;32.078;34.818;2023-10-09T05:20:07;32.10;39.20
23618;DHT22;18207;32.078;34.818;2023-10-09T05:22:54;32.10;39.30
23618;DHT22;18207;32.078;34.818;2023-10-09T05:25:44;32.10;39.30
23618;DHT22;18207;32.078;34.818;2023-10-09T05:28:23;32.20;39.40
23618;DHT22;18207;32.078;34.818;2023-10-09T05:31:16;32.20;39.40
23618;DHT22;18207;32.078;34.818;2023-10-09T05:34:01;32.20;39.40
23618;DHT22;18207;32.078;34.818;2023-10-09T05:36:34;32.30;39.60
23618;DHT22;18207;32.078;34.818;2023-10-09T05:39:15;32.30;39.60
23618;DHT22;18207;32.078;34.818;2023-10-09T05:41:50;32.30;39.70
23618;DHT22;18207;32.078;34.818;2023-10-09T05:44:27;32.30;39.70
23618;DHT22;18207;32.078;34.818;2023-10-09T05:47:14;32.40;39.70
23618;DHT22;18207;32.078;34.818;2023-10-09T05:50:02;32.40;39.70
23618;DHT22;18207;32.078;34.818;2023-10-09T05:53:04;32.40;39.80
23618;DHT22;18207;32.078;34.818;2023-10-09T05:55:37;32.40;39.80
23618;DHT22;18207;32.078;34.818;2023-10-09T05:58:33;32.50;39.90
23618;DHT22;18207;32.078;34.818;2023-10-09T06:01:25;32.50;40.00
23618;DHT22;18207;32.078;34.818;2023-10-09T06:04:12;32.50;40.70
23618;DHT22;18207;32.078;34.818;2023-10-09T06:06:46;32.60;40.20
23618;DHT22;18207;32.078;34.818;2023-10-09T06:09:26;32.50;40.20
23618;DHT22;18207;32.078;34.818;2023-10-09T06:12:09;32.60;40.40
23618;DHT22;18207;32.078;34.818;2023-10-09T06:14:59;32.60;40.50
23618;DHT22;18207;32.078;34.818;2023-10-09T06:17:46;32.70;40.50
23618;DHT22;18207;32.078;34.818;2023-10-09T06:20:18;32.70;40.50
23618;DHT22;18207;32.078;34.818;2023-10-09T06:23:06;32.70;40.50
23618;DHT22;18207;32.078;34.818;2023-10-09T06:25:44;32.80;40.60
23618;DHT22;18207;32.078;34.818;2023-10-09T06:28:19;32.80;40.60
23618;DHT22;18207;32.078;34.818;2023-10-09T06:31:00;32.80;40.60
23618;DHT22;18207;32.078;34.818;2023-10-09T06:34:04;32.80;40.60
23618;DHT22;18207;32.078;34.818;2023-10-09T06:36:43;32.90;40.70
23618;DHT22;18207;32.078;34.818;2023-10-09T06:39:22;32.90;40.60
23618;DHT22;18207;32.078;34.818;2023-10-09T06:42:08;32.90;40.60
23618;DHT22;18207;32.078;34.818;2023-10-09T06:45:00;32.90;40.70
23618;DHT22;18207;32.078;34.818;2023-10-09T06:47:33;33.00;40.70
23618;DHT22;18207;32.078;34.818;2023-10-09T06:50:09;33.00;40.70
23618;DHT22;18207;32.078;34.818;2023-10-09T06:52:54;33.00;40.80
23618;DHT22;18207;32.078;34.818;2023-10-09T06:55:55;33.00;40.80
23618;DHT22;18207;32.078;34.818;2023-10-09T06:58:33;33.00;40.80
23618;DHT22;18207;32.078;34.818;2023-10-09T07:01:15;33.00;40.80
23618;DHT22;18207;32.078;34.818;2023-10-09T07:04:13;33.00;40.80
23618;DHT22;18207;32.078;34.818;2023-10-09T07:07:03;33.10;40.90
23618;DHT22;18207;32.078;34.818;2023-10-09T07:09:37;33.10;40.80
23618;DHT22;18207;32.078;34.818;2023-10-09T07:12:34;33.10;40.90
23618;DHT22;18207;32.078;34.818;2023-10-09T07:15:10;33.10;40.90
23618;DHT22;18207;32.078;34.818;2023-10-09T07:17:57;33.10;40.90
23618;DHT22;18207;32.078;34.818;2023-10-09T07:20:46;33.10;41.50
23618;DHT22;18207;32.078;34.818;2023-10-09T07:23:29;33.10;40.90
23618;DHT22;18207;32.078;34.818;2023-10-09T07:26:04;33.10;40.90
23618;DHT22;18207;32.078;34.818;2023-10-09T07:29:10;33.10;40.90
23618;DHT22;18207;32.078;34.818;2023-10-09T07:31:57;33.20;41.00
23618;DHT22;18207;32.078;34.818;2023-10-09T07:34:40;33.20;41.00
23618;DHT22;18207;32.078;34.818;2023-10-09T07:37:21;33.20;41.00
23618;DHT22;18207;32.078;34.818;2023-10-09T07:39:51;33.20;41.00
23618;DHT22;18207;32.078;34.818;2023-10-09T07:42:26;33.30;41.00
23618;DHT22;18207;32.078;34.818;2023-10-09T07:45:13;33.30;41.10
23618;DHT22;18207;32.078;34.818;2023-10-09T07:47:56;33.30;41.00
23618;DHT22;18207;32.078;34.818;2023-10-09T07:50:42;33.30;41.00
23618;DHT22;18207;32.078;34.818;2023-10-09T07:53:16;33.30;41.00
23618;DHT22;18207;32.078;34.818;2023-10-09T07:55:53;33.30;40.90
23618;DHT22;18207;32.078;34.818;2023-10-09T07:58:26;33.30;41.00
23618;DHT22;18207;32.078;34.818;2023-10-09T08:01:00;33.40;41.10
23618;DHT22;18207;32.078;34.818;2023-10-09T08:03:36;33.40;41.00
23618;DHT22;18207;32.078;34.818;2023-10-09T08:06:06;33.40;41.00
23618;DHT22;18207;32.078;34.818;2023-10-09T08:08:55;33.40;40.90
23618;DHT22;18207;32.078;34.818;2023-10-09T08:11:50;33.40;40.80
23618;DHT22;18207;32.078;34.818;2023-10-09T08:14:36;33.40;40.80
23618;DHT22;18207;32.078;34.818;2023-10-09T08:17:15;33.40;40.80
23618;DHT22;18207;32.078;34.818;2023-10-09T08:19:49;33.40;40.80
23618;DHT22;18207;32.078;34.818;2023-10-09T08:22:26;33.50;40.90
23618;DHT22;18207;32.078;34.818;2023-10-09T08:25:11;33.50;40.90
23618;DHT22;18207;32.078;34.818;2023-10-09T08:27:55;33.50;40.90
23618;DHT22;18207;32.078;34.818;2023-10-09T08:30:49;33.50;40.90
23618;DHT22;18207;32.078;34.818;2023-10-09T08:33:21;33.50;40.80
23618;DHT22;18207;32.078;34.818;2023-10-09T08:36:13;33.60;40.80
23618;DHT22;18207;32.078;34.818;2023-10-09T08:38:44;33.50;40.70
23618;DHT22;18207;32.078;34.818;2023-10-09T08:41:13;33.50;40.70
23618;DHT22;18207;32.078;34.818;2023-10-09T08:43:59;33.60;40.80
23618;DHT22;18207;32.078;34.818;2023-10-09T08:46:31;33.60;40.70
23618;DHT22;18207;32.078;34.818;2023-10-09T08:49:06;33.60;40.80
23618;DHT22;18207;32.078;34.818;2023-10-09T08:51:38;33.60;40.80
23618;DHT22;18207;32.078;34.818;2023-10-09T08:54:09;33.60;40.70
23618;DHT22;18207;32.078;34.818;2023-10-09T08:56:42;33.70;40.80
23618;DHT22;18207;32.078;34.818;2023-10-09T08:59:18;33.70;40.70
23618;DHT22;18207;32.078;34.818;2023-10-09T09:01:49;33.70;40.70
23618;DHT22;18207;32.078;34.818;2023-10-09T09:04:38;33.70;40.60
23618;DHT22;18207;32.078;34.818;2023-10-09T09:07:25;33.70;40.50
23618;DHT22;18207;32.078;34.818;2023-10-09T09:09:57;33.70;40.50
23618;DHT22;18207;32.078;34.818;2023-10-09T09:13:00;33.80;40.60
23618;DHT22;18207;32.078;34.818;2023-10-09T09:15:31;33.80;40.40
23618;DHT22;18207;32.078;34.818;2023-10-09T09:18:05;33.90;40.50
23618;DHT22;18207;32.078;34.818;2023-10-09T09:20:39;33.90;40.50
23618;DHT22;18207;32.078;34.818;2023-10-09T09:23:13;33.90;40.50
23618;DHT22;18207;32.078;34.818;2023-10-09T09:25:53;33.90;40.40
23618;DHT22;18207;32.078;34.818;2023-10-09T09:28:28;33.90;40.30
23618;DHT22;18207;32.078;34.818;2023-10-09T09:31:09;33.90;40.20
23618;DHT22;18207;32.078;34.818;2023-10-09T09:33:43;33.90;40.10
23618;DHT22;18207;32.078;34.818;2023-10-09T09:36:27;34.00;40.20
23618;DHT22;18207;32.078;34.818;2023-10-09T09:38:58;34.00;40.20
23618;DHT22;18207;32.078;34.818;2023-10-09T09:41:33;34.00;40.10
23618;DHT22;18207;32.078;34.818;2023-10-09T09:44:07;33.90;40.00
23618;DHT22;18207;32.078;34.818;2023-10-09T09:46:42;34.00;40.00
23618;DHT22;18207;32.078;34.818;2023-10-09T09:49:25;34.00;39.90
23618;DHT22;18207;32.078;34.818;2023-10-09T09:52:04;34.00;40.00
23618;DHT22;18207;32.078;34.818;2023-10-09T09:54:37;34.00;40.10
23618;DHT22;18207;32.078;34.818;2023-10-09T09:57:07;33.90;40.10
23618;DHT22;18207;32.078;34.818;2023-10-09T09:59:42;33.90;40.10
23618;DHT22;18207;32.078;34.818;2023-10-09T10:02:27;33.90;40.10
23618;DHT22;18207;32.078;34.818;2023-10-09T10:05:07;33.80;40.00
23618;DHT22;18207;32.078;34.818;2023-10-09T10:07:42;33.90;40.00
23618;DHT22;18207;32.078;34.818;2023-10-09T10:10:36;33.90;40.00
23618;DHT22;18207;32.078;34.818;2023-10-09T10:13:15;33.80;40.00
23618;DHT22;18207;32.078;34.818;2023-10-09T10:15:59;33.80;40.10
23618;DHT22;18207;32.078;34.818;2023-10-09T10:18:56;33.80;40.10
23618;DHT22;18207;32.078;34.818;2023-10-09T10:21:49;33.70;40.20
23618;DHT22;18207;32.078;34.818;2023-10-09T10:24:43;33.70;40.20
23618;DHT22;18207;32.078;34.818;2023-10-09T10:27:31;33.70;40.20
23618;DHT22;18207;32.078;34.818;2023-10-09T10:30:41;33.70;40.20
23618;DHT22;18207;32.078;34.818;2023-10-09T10:33:18;33.70;40.30
23618;DHT22;18207;32.078;34.818;2023-10-09T10:35:50;33.70;40.40
23618;DHT22;18207;32.078;34.818;2023-10-09T10:38:26;33.70;40.30
23618;DHT22;18207;32.078;34.818;2023-10-09T10:41:13;33.70;40.30
23618;DHT22;18207;32.078;34.818;2023-10-09T10:43:45;33.70;40.30
23618;DHT22;18207;32.078;34.818;2023-10-09T10:46:41;33.70;40.30
23618;DHT22;18207;32.078;34.818;2023-10-09T10:49:13;33.70;40.30
23618;DHT22;18207;32.078;34.818;2023-10-09T10:51:56;33.80;40.30
23618;DHT22;18207;32.078;34.818;2023-10-09T10:54:51;33.80;40.30
23618;DHT22;18207;32.078;34.818;2023-10-09T10:57:54;33.70;40.30
23618;DHT22;18207;32.078;34.818;2023-10-09T11:00:37;33.60;40.60
23618;DHT22;18207;32.078;34.818;2023-10-09T11:03:27;33.70;40.70
23618;DHT22;18207;32.078;34.818;2023-10-09T11:06:06;33.70;40.60
23618;DHT22;18207;32.078;34.818;2023-10-09T11:08:46;33.70;40.50
23618;DHT22;18207;32.078;34.818;2023-10-09T11:11:22;33.70;40.40
23618;DHT22;18207;32.078;34.818;2023-10-09T11:14:09;33.80;40.40
23618;DHT22;18207;32.078;34.818;2023-10-09T11:16:43;33.70;40.40
23618;DHT22;18207;32.078;34.818;2023-10-09T11:19:20;33.70;40.30
23618;DHT22;18207;32.078;34.818;2023-10-09T11:22:04;33.70;40.30
23618;DHT22;18207;32.078;34.818;2023-10-09T11:24:56;33.70;40.20
23618;DHT22;18207;32.078;34.818;2023-10-09T11:27:41;33.80;40.20
23618;DHT22;18207;32.078;34.818;2023-10-09T11:30:33;33.70;40.20
23618;DHT22;18207;32.078;34.818;2023-10-09T11:33:19;33.70;40.20
23618;DHT22;18207;32.078;34.818;2023-10-09T11:35:57;33.70;40.30
23618;DHT22;18207;32.078;34.818;2023-10-09T11:38:26;33.70;40.30
23618;DHT22;18207;32.078;34.818;2023-10-09T11:41:12;33.70;40.40
23618;DHT22;18207;32.078;34.818;2023-10-09T11:43:53;33.70;40.50
23618;DHT22;18207;32.078;34.818;2023-10-09T11:46:24;33.70;40.50
23618;DHT22;18207;32.078;34.818;2023-10-09T11:49:16;33.60;40.40
23618;DHT22;18207;32.078;34.818;2023-10-09T11:52:08;33.60;40.40
23618;DHT22;18207;32.078;34.818;2023-10-09T11:54:56;33.70;40.50
23618;DHT22;18207;32.078;34.818;2023-10-09T11:57:27;33.60;40.50
23618;DHT22;18207;32.078;34.818;2023-10-09T12:00:13;33.60;40.50
23618;DHT22;18207;32.078;34.818;2023-10-09T12:02:58;33.60;40.50
23618;DHT22;18207;32.078;34.818;2023-10-09T12:05:34;33.60;40.60
23618;DHT22;18207;32.078;34.818;2023-10-09T12:08:06;33.60;40.60
23618;DHT22;18207;32.078;34.818;2023-10-09T12:10:38;33.60;40.60
23618;DHT22;18207;32.078;34.818;2023-10-09T12:13:10;33.60;40.60
23618;DHT22;18207;32.078;34.818;2023-10-09T12:15:43;33.60;40.60
23618;DHT22;18207;32.078;34.818;2023-10-09T12:18:15;33.60;40.50
23618;DHT22;18207;32.078;34.818;2023-10-09T12:21:01;33.60;40.50
23618;DHT22;18207;32.078;34.818;2023-10-09T12:23:32;33.60;40.50
23618;DHT22;18207;32.078;34.818;2023-10-09T12:26:04;33.60;40.50
23618;DHT22;18207;32.078;34.818;2023-10-09T12:28:45;33.60;40.50
23618;DHT22;18207;32.078;34.818;2023-10-09T12:31:17;33.60;40.50
23618;DHT22;18207;32.078;34.818;2023-10-09T12:33:57;33.70;40.50
23618;DHT22;18207;32.078;34.818;2023-10-09T12:36:28;33.60;40.40
23618;DHT22;18207;32.078;34.818;2023-10-09T12:39:05;33.70;40.50
23618;DHT22;18207;32.078;34.818;2023-10-09T12:44:36;33.70;40.40
23618;DHT22;18207;32.078;34.818;2023-10-09T12:47:08;33.70;40.30
23618;DHT22;18207;32.078;34.818;2023-10-09T12:49:41;33.60;40.20
23618;DHT22;18207;32.078;34.818;2023-10-09T12:52:14;33.70;40.30
23618;DHT22;18207;32.078;34.818;2023-10-09T12:54:57;33.60;40.20
23618;DHT22;18207;32.078;34.818;2023-10-09T12:57:28;33.70;40.20
23618;DHT22;18207;32.078;34.818;2023-10-09T13:00:08;33.70;40.20
23618;DHT22;18207;32.078;34.818;2023-10-09T13:02:40;33.70;40.10
23618;DHT22;18207;32.078;34.818;2023-10-09T13:05:14;33.70;40.10
23618;DHT22;18207;32.078;34.818;2023-10-09T13:07:54;33.70;40.00
23618;DHT22;18207;32.078;34.818;2023-10-09T13:10:25;33.70;40.00
23618;DHT22;18207;32.078;34.818;2023-10-09T13:12:59;33.60;40.00
23618;DHT22;18207;32.078;34.818;2023-10-09T13:15:32;33.70;40.00
23618;DHT22;18207;32.078;34.818;2023-10-09T13:18:11;33.60;40.00
23618;DHT22;18207;32.078;34.818;2023-10-09T13:20:44;33.60;40.00
23618;DHT22;18207;32.078;34.818;2023-10-09T13:23:17;33.60;40.00
23618;DHT22;18207;32.078;34.818;2023-10-09T13:26:01;33.60;39.90
23618;DHT22;18207;32.078;34.818;2023-10-09T13:28:57;33.60;39.90
23618;DHT22;18207;32.078;34.818;2023-10-09T13:31:30;33.60;39.90
23618;DHT22;18207;32.078;34.818;2023-10-09T13:34:04;33.60;39.90
23618;DHT22;18207;32.078;34.818;2023-10-09T13:36:40;33.60;39.90
23618;DHT22;18207;32.078;34.818;2023-10-09T13:39:18;33.60;39.90
23618;DHT22;18207;32.078;34.818;2023-10-09T13:41:51;33.60;40.00
23618;DHT22;18207;32.078;34.818;2023-10-09T13:44:28;33.60;40.00
23618;DHT22;18207;32.078;34.818;2023-10-09T13:46:59;33.60;39.90
23618;DHT22;18207;32.078;34.818;2023-10-09T13:49:34;33.60;39.90
23618;DHT22;18207;32.078;34.818;2023-10-09T13:52:14;33.60;39.90
23618;DHT22;18207;32.078;34.818;2023-10-09T13:54:46;33.50;39.90
23618;DHT22;18207;32.078;34.818;2023-10-09T13:57:18;33.50;40.00
23618;DHT22;18207;32.078;34.818;2023-10-09T14:00:08;33.50;40.10
23618;DHT22;18207;32.078;34.818;2023-10-09T14:02:41;33.50;40.20
23618;DHT22;18207;32.078;34.818;2023-10-09T14:05:28;33.50;40.20
23618;DHT22;18207;32.078;34.818;2023-10-09T14:08:00;33.40;40.20
23618;DHT22;18207;32.078;34.818;2023-10-09T14:10:31;33.40;40.20
23618;DHT22;18207;32.078;34.818;2023-10-09T14:13:06;33.50;40.40
23618;DHT22;18207;32.078;34.818;2023-10-09T14:15:40;33.40;40.30
23618;DHT22;18207;32.078;34.818;2023-10-09T14:18:10;33.40;40.40
23618;DHT22;18207;32.078;34.818;2023-10-09T14:20:40;33.40;40.40
23618;DHT22;18207;32.078;34.818;2023-10-09T14:23:12;33.40;40.40
23618;DHT22;18207;32.078;34.818;2023-10-09T14:25:48;33.40;40.40
23618;DHT22;18207;32.078;34.818;2023-10-09T14:28:21;33.40;40.80
23618;DHT22;18207;32.078;34.818;2023-10-09T14:30:56;33.40;40.50
23618;DHT22;18207;32.078;34.818;2023-10-09T14:33:27;33.40;40.60
23618;DHT22;18207;32.078;34.818;2023-10-09T14:36:19;33.40;40.60
23618;DHT22;18207;32.078;34.818;2023-10-09T14:39:01;33.40;40.70
23618;DHT22;18207;32.078;34.818;2023-10-09T14:41:41;33.40;40.60
23618;DHT22;18207;32.078;34.818;2023-10-09T14:44:13;33.40;40.70
23618;DHT22;18207;32.078;34.818;2023-10-09T14:46:44;33.40;40.70
23618;DHT22;18207;32.078;34.818;2023-10-09T14:49:25;33.40;40.80
23618;DHT22;18207;32.078;34.818;2023-10-09T14:52:09;33.40;40.80
23618;DHT22;18207;32.078;34.818;2023-10-09T14:54:41;33.40;40.90
23618;DHT22;18207;32.078;34.818;2023-10-09T14:57:12;33.40;40.90
23618;DHT22;18207;32.078;34.818;2023-10-09T14:59:42;33.40;41.00
23618;DHT22;18207;32.078;34.818;2023-10-09T15:02:12;33.40;41.00
23618;DHT22;18207;32.078;34.818;2023-10-09T15:04:43;33.40;41.10
23618;DHT22;18207;32.078;34.818;2023-10-09T15:07:12;33.40;41.20
23618;DHT22;18207;32.078;34.818;2023-10-09T15:10:07;33.40;41.20
23618;DHT22;18207;32.078;34.818;2023-10-09T15:12:44;33.40;41.30
23618;DHT22;18207;32.078;34.818;2023-10-09T15:15:22;33.40;41.30
23618;DHT22;18207;32.078;34.818;2023-10-09T15:17:53;33.40;41.70
23618;DHT22;18207;32.078;34.818;2023-10-09T15:20:30;33.40;41.30
23618;DHT22;18207;32.078;34.818;2023-10-09T15:23:08;33.40;41.40
23618;DHT22;18207;32.078;34.818;2023-10-09T15:25:43;33.40;41.40
23618;DHT22;18207;32.078;34.818;2023-10-09T15:28:21;33.30;41.50
23618;DHT22;18207;32.078;34.818;2023-10-09T15:30:51;33.30;41.60
23618;DHT22;18207;32.078;34.818;2023-10-09T15:33:22;33.30;41.70
23618;DHT22;18207;32.078;34.818;2023-10-09T15:35:56;33.30;41.80
23618;DHT22;18207;32.078;34.818;2023-10-09T15:38:32;33.30;41.90
23618;DHT22;18207;32.078;34.818;2023-10-09T15:41:05;33.30;41.90
23618;DHT22;18207;32.078;34.818;2023-10-09T15:43:35;33.20;41.90
23618;DHT22;18207;32.078;34.818;2023-10-09T15:46:11;33.20;41.90
23618;DHT22;18207;32.078;34.818;2023-10-09T15:48:43;33.20;42.00
23618;DHT22;18207;32.078;34.818;2023-10-09T15:51:14;33.20;41.90
23618;DHT22;18207;32.078;34.818;2023-10-09T15:53:45;33.20;41.90
23618;DHT22;18207;32.078;34.818;2023-10-09T15:56:20;33.20;41.80
23618;DHT22;18207;32.078;34.818;2023-10-09T15:58:50;33.20;41.80
23618;DHT22;18207;32.078;34.818;2023-10-09T16:01:21;33.20;41.80
23618;DHT22;18207;32.078;34.818;2023-10-09T16:03:52;33.20;41.90
23618;DHT22;18207;32.078;34.818;2023-10-09T16:06:23;33.20;41.90
23618;DHT22;18207;32.078;34.818;2023-10-09T16:08:57;33.20;42.00
23618;DHT22;18207;32.078;34.818;2023-10-09T16:11:29;33.20;42.00
23618;DHT22;18207;32.078;34.818;2023-10-09T16:14:01;33.20;42.00
23618;DHT22;18207;32.078;34.818;2023-10-09T16:16:36;33.20;42.00
23618;DHT22;18207;32.078;34.818;2023-10-09T16:19:11;33.20;42.00
23618;DHT22;18207;32.078;34.818;2023-10-09T16:21:43;33.20;42.10
23618;DHT22;18207;32.078;34.818;2023-10-09T16:24:14;33.20;42.10